KLBL/LBL METAR and TAF weather

Enter ICAO airport designator
Station Type Date Time Source
KLBL METAR 2023/02/05 23:56 UTC NOAA

KLBL 052356Z AUTO 15009KT 10SM CLR 13/M07 A2997 RMK AO2 SLP157 T01331072 10178 20122 56015


Station Type Date Time Source
KLBL Decoded METAR 2023/02/05 23:56 UTC NOAA

Liberal, Liberal Municipal Airport, KS, United States (KLBL) 37-03N 100-58W
Feb 05, 2023 - 06:56 PM EST / 2023.02.05 2356 UTC
Wind: from the SSE (150 degrees) at 10 MPH (9 KT):0
Visibility: 10 mile(s):0
Sky conditions: clear
Temperature: 55.9 F (13.3 C)
Dew Point: 19.0 F (-7.2 C)
Relative Humidity: 23%
Pressure (altimeter): 29.97 in. Hg (1014 hPa)
Pressure tendency: 0.04 inches (1.5 hPa) lower than three hours ago
ob: KLBL 052356Z AUTO 15009KT 10SM CLR 13/M07 A2997 RMK AO2 SLP157 T01331072 10178 20122 56015
cycle: 0

Station Type Date Time Source
KLBL TAF 2023/02/05 18:21 UTC NOAA

TAF KLBL 051720Z 0518/0618 15009KT P6SM FEW250
FM052100 14013KT P6SM SKC
FM061100 22012KT P6SM BKN220
FM061500 28016G24KT P6SM SKC

Example: see airport list